Time;durP1;ratioP1;P1;durP2;ratioP2;P2;SDS_P1;SDS_P2;PMS_P1;PMS_P2;Temp;Humidity;BMP_temperature;BMP_pressure;BME280_temperature;BME280_humidity;BME280_pressure;Samples;Min_cycle;Max_cycle;Signal;HPM_P1;HPM_P2
2024/01/12 00:01:09;;;;;;;42.15;25.15;;;;;;;-1.95;81.53;99300.47;5212836;22;20218;-83
2024/01/12 00:03:12;;;;;;;45.53;24.83;;;;;;;-1.96;81.31;99299.59;5187257;22;20641;-83
2024/01/12 00:05:15;;;;;;;47.03;24.95;;;;;;;-1.97;81.15;99295.34;5213530;22;20239;-83
2024/01/12 00:07:19;;;;;;;38.35;22.40;;;;;;;-1.97;80.80;99302.16;5211826;22;20179;-82
2024/01/12 00:09:23;;;;;;;41.55;23.95;;;;;;;-2.05;80.83;99299.59;5236002;22;20798;-83
2024/01/12 00:11:26;;;;;;;40.30;23.13;;;;;;;-2.06;80.59;99313.25;5211259;22;20184;-82
2024/01/12 00:13:30;;;;;;;43.25;24.52;;;;;;;-2.12;80.28;99308.13;5213893;22;20196;-83
2024/01/12 00:15:33;;;;;;;39.92;22.75;;;;;;;-2.14;80.99;99307.25;5214025;22;20179;-82
2024/01/12 00:17:35;;;;;;;42.60;23.17;;;;;;;-2.18;80.47;99305.56;5240151;22;20172;-83
2024/01/12 00:19:38;;;;;;;41.60;23.15;;;;;;;-2.20;80.69;99302.13;5240054;22;20819;-83
2024/01/12 00:21:43;;;;;;;42.42;23.17;;;;;;;-2.21;80.72;99303.00;5212979;22;20200;-83
2024/01/12 00:23:47;;;;;;;51.83;25.95;;;;;;;-2.20;80.62;99302.13;5187465;22;20187;-83
2024/01/12 00:25:58;;;;;;;42.75;22.13;;;;;;;-2.22;81.02;99301.28;5240321;22;20178;-82
2024/01/12 00:28:01;;;;;;;49.15;23.40;;;;;;;-2.20;81.17;99303.84;5188549;22;20172;-83
2024/01/12 00:30:05;;;;;;;47.05;23.75;;;;;;;-2.17;80.86;99307.25;5240447;22;20175;-82
2024/01/12 00:32:08;;;;;;;48.53;26.52;;;;;;;-2.13;81.56;99311.53;5213265;22;20176;-83
2024/01/12 00:34:10;;;;;;;54.95;26.63;;;;;;;-2.10;81.11;99311.53;5212973;22;20199;-83
2024/01/12 00:36:13;;;;;;;51.55;29.63;;;;;;;-2.11;81.06;99314.91;5212927;22;20180;-82
2024/01/12 00:38:16;;;;;;;42.72;25.10;;;;;;;-2.12;81.03;99308.13;5212375;22;20691;-82
2024/01/12 00:40:19;;;;;;;46.78;24.60;;;;;;;-2.11;80.64;99314.06;5240866;22;20175;-82
2024/01/12 00:42:24;;;;;;;49.50;27.77;;;;;;;-2.07;80.98;99316.63;5239141;22;20183;-82
2024/01/12 00:44:27;;;;;;;49.50;25.67;;;;;;;-2.12;81.03;99308.13;5187564;22;20227;-82
2024/01/12 00:46:31;;;;;;;46.22;24.70;;;;;;;-2.12;80.49;99308.13;5240101;22;20171;-83
2024/01/12 00:48:34;;;;;;;39.70;22.38;;;;;;;-2.13;80.56;99306.41;5213660;22;20172;-83
2024/01/12 00:50:38;;;;;;;42.13;24.75;;;;;;;-2.15;80.82;99305.56;5212052;22;20184;-82
2024/01/12 00:52:40;;;;;;;43.78;24.58;;;;;;;-2.13;80.88;99311.53;5238978;22;20224;-83
2024/01/12 00:54:43;;;;;;;39.65;23.35;;;;;;;-2.20;81.28;99309.81;5240342;22;20899;-82
2024/01/12 00:56:46;;;;;;;45.65;23.08;;;;;;;-2.24;81.47;99313.22;5213853;22;20199;-83
2024/01/12 00:58:51;;;;;;;44.90;23.55;;;;;;;-2.25;81.88;99311.50;5187733;22;20215;-82
2024/01/12 01:00:54;;;;;;;40.58;23.80;;;;;;;-2.26;80.75;99312.34;5212796;22;20206;-82
2024/01/12 01:02:58;;;;;;;41.40;23.52;;;;;;;-2.32;80.66;99307.22;5238929;22;20221;-82
2024/01/12 01:05:00;;;;;;;46.88;23.85;;;;;;;-2.35;80.05;99316.59;5213558;22;20199;-82
2024/01/12 01:07:04;;;;;;;44.92;23.30;;;;;;;-2.34;80.45;99316.59;5213567;22;20187;-83
2024/01/12 01:09:07;;;;;;;39.17;23.40;;;;;;;-2.29;80.28;99314.06;5240228;22;20498;-83
2024/01/12 01:11:10;;;;;;;40.60;24.15;;;;;;;-2.32;80.72;99319.16;5213875;22;20172;-83
2024/01/12 01:13:12;;;;;;;36.28;21.25;;;;;;;-2.34;80.56;99320.88;5213631;22;20176;-83
2024/01/12 01:15:17;;;;;;;44.50;23.38;;;;;;;-2.38;79.88;99331.06;5213465;22;20263;-82
2024/01/12 01:17:20;;;;;;;44.67;23.80;;;;;;;-2.43;79.89;99327.66;5213975;22;20229;-83
2024/01/12 01:19:23;;;;;;;46.92;22.63;;;;;;;-2.51;79.88;99321.66;5188015;22;20191;-82
2024/01/12 01:21:27;;;;;;;49.03;25.52;;;;;;;-2.59;80.34;99318.25;5213429;22;20275;-83
2024/01/12 01:23:30;;;;;;;43.70;22.63;;;;;;;-2.63;80.38;99321.63;5240912;22;20186;-83
2024/01/12 01:25:33;;;;;;;44.47;23.25;;;;;;;-2.65;80.74;99319.06;5213511;22;20175;-83
2024/01/12 01:27:36;;;;;;;41.85;21.52;;;;;;;-2.65;80.70;99319.06;5213690;22;20200;-83
2024/01/12 01:29:39;;;;;;;42.17;22.38;;;;;;;-2.58;80.87;99320.81;5213794;22;20218;-83
2024/01/12 01:31:44;;;;;;;38.40;21.75;;;;;;;-2.54;81.15;99326.75;5184202;22;20177;-83
2024/01/12 01:33:47;;;;;;;45.90;23.45;;;;;;;-2.52;80.89;99323.38;5211101;22;20230;-83
2024/01/12 01:35:51;;;;;;;42.40;24.13;;;;;;;-2.51;80.89;99324.22;5213927;22;20176;-82
2024/01/12 01:37:54;;;;;;;40.58;21.60;;;;;;;-2.56;80.18;99319.09;5240299;22;20178;-83
2024/01/12 01:39:57;;;;;;;41.63;23.00;;;;;;;-2.57;80.52;99325.06;5212575;22;20565;-83
2024/01/12 01:42:01;;;;;;;50.33;24.38;;;;;;;-2.56;80.91;99328.47;5212433;22;20186;-81
2024/01/12 01:44:05;;;;;;;44.97;24.02;;;;;;;-2.56;80.84;99323.38;5213778;22;20587;-80
2024/01/12 01:46:08;;;;;;;41.03;24.15;;;;;;;-2.56;80.41;99334.41;5213843;22;20179;-79
2024/01/12 01:48:12;;;;;;;43.72;22.65;;;;;;;-2.56;80.13;99331.88;5240913;22;20201;-80
2024/01/12 01:50:16;;;;;;;42.97;24.40;;;;;;;-2.60;79.92;99330.16;5213757;22;20176;-80
2024/01/12 01:52:20;;;;;;;43.15;23.00;;;;;;;-2.63;80.32;99326.75;5213205;22;20175;-80
2024/01/12 01:54:23;;;;;;;43.88;22.50;;;;;;;-2.63;80.46;99334.38;5212964;22;20196;-79
2024/01/12 01:56:27;;;;;;;42.45;23.80;;;;;;;-2.64;80.49;99335.25;5213215;22;20176;-81
2024/01/12 01:58:30;;;;;;;40.70;22.30;;;;;;;-2.65;80.58;99328.44;5213747;22;20172;-79
2024/01/12 02:00:33;;;;;;;46.58;22.27;;;;;;;-2.66;80.53;99325.06;5212720;22;20172;-80
2024/01/12 02:02:36;;;;;;;41.53;21.98;;;;;;;-2.67;80.82;99319.94;5188208;22;20177;-80
2024/01/12 02:04:41;;;;;;;39.38;23.38;;;;;;;-2.67;81.52;99319.94;5213352;22;20726;-79
2024/01/12 02:06:44;;;;;;;41.15;23.38;;;;;;;-2.62;81.24;99325.91;5213573;22;20199;-79
2024/01/12 02:08:48;;;;;;;43.90;22.33;;;;;;;-2.62;80.78;99333.56;5213962;22;20243;-79
2024/01/12 02:10:52;;;;;;;40.47;21.60;;;;;;;-2.60;80.64;99334.41;5240785;22;20236;-80
2024/01/12 02:12:55;;;;;;;43.28;21.38;;;;;;;-2.60;80.53;99340.38;5240863;22;20263;-79
2024/01/12 02:14:59;;;;;;;42.08;22.55;;;;;;;-2.61;80.65;99340.38;5213280;22;20218;-81
2024/01/12 02:17:03;;;;;;;37.97;21.77;;;;;;;-2.61;80.42;99337.81;5213201;22;20199;-79
2024/01/12 02:19:05;;;;;;;38.35;22.13;;;;;;;-2.62;80.30;99333.56;5214054;22;20172;-79
2024/01/12 02:21:09;;;;;;;44.80;23.63;;;;;;;-2.66;79.61;99334.38;5240921;22;20191;-79
2024/01/12 02:23:13;;;;;;;37.83;21.23;;;;;;;-2.69;79.53;99327.59;5211042;22;20168;-81
2024/01/12 02:25:16;;;;;;;36.60;22.13;;;;;;;-2.70;79.81;99328.44;5212161;22;20616;-80
2024/01/12 02:27:19;;;;;;;38.45;20.75;;;;;;;-2.74;79.99;99323.31;5188269;22;20595;-80
2024/01/12 02:29:23;;;;;;;42.58;22.13;;;;;;;-2.78;79.62;99317.34;5187684;22;20172;-80
2024/01/12 02:31:26;;;;;;;41.85;22.08;;;;;;;-2.74;79.83;99308.00;5239947;22;20199;-80
2024/01/12 02:33:28;;;;;;;36.78;20.65;;;;;;;-2.73;79.85;99309.72;5240160;22;20171;-80
2024/01/12 02:35:31;;;;;;;36.92;20.50;;;;;;;-2.75;80.09;99306.31;5239973;22;20188;-80
2024/01/12 02:37:36;;;;;;;38.20;21.33;;;;;;;-2.76;80.51;99302.06;5241508;22;20179;-79
2024/01/12 02:39:39;;;;;;;41.80;21.65;;;;;;;-2.80;80.28;99313.97;5187852;22;20181;-80
2024/01/12 02:41:42;;;;;;;40.83;20.63;;;;;;;-2.82;79.93;99310.53;5240470;22;20619;-79
2024/01/12 02:43:45;;;;;;;40.65;20.75;;;;;;;-2.82;79.88;99317.34;5241485;22;20518;-80
2024/01/12 02:45:48;;;;;;;40.03;20.42;;;;;;;-2.85;80.48;99312.22;5186565;22;20173;-80
2024/01/12 02:47:51;;;;;;;39.25;21.20;;;;;;;-2.84;79.97;99321.59;5212802;22;20180;-79
2024/01/12 02:49:54;;;;;;;34.95;20.45;;;;;;;-2.84;79.90;99306.28;5241391;22;20198;-80
2024/01/12 02:51:57;;;;;;;38.70;21.38;;;;;;;-2.84;80.31;99310.50;5187613;22;20173;-79
2024/01/12 02:54:03;;;;;;;39.63;21.20;;;;;;;-2.89;79.96;99302.84;5213696;22;20508;-80
2024/01/12 02:56:06;;;;;;;41.05;22.30;;;;;;;-2.99;79.13;99311.34;5238102;22;20255;-81
2024/01/12 02:58:09;;;;;;;40.30;21.20;;;;;;;-3.04;78.79;99302.78;5211695;22;20198;-79
2024/01/12 03:00:13;;;;;;;37.47;21.08;;;;;;;-3.07;79.16;99307.88;5213593;22;20180;-79
2024/01/12 03:02:17;;;;;;;37.80;20.08;;;;;;;-3.06;79.30;99299.38;5240674;22;20511;-80
2024/01/12 03:04:20;;;;;;;38.97;20.52;;;;;;;-3.11;79.55;99307.84;5186566;22;20541;-79
2024/01/12 03:06:23;;;;;;;36.47;19.85;;;;;;;-3.15;79.54;99298.50;5213177;22;20573;-79
2024/01/12 03:08:26;;;;;;;39.58;21.17;;;;;;;-3.12;79.88;99296.81;5212619;22;20168;-79
2024/01/12 03:10:31;;;;;;;32.50;18.90;;;;;;;-3.09;80.08;99311.28;5188060;22;20257;-80
2024/01/12 03:12:34;;;;;;;39.22;20.80;;;;;;;-3.10;79.99;99307.03;5240459;22;20262;-80
2024/01/12 03:14:37;;;;;;;36.80;20.55;;;;;;;-3.11;79.39;99306.19;5212171;22;20192;-80
2024/01/12 03:16:39;;;;;;;41.58;21.48;;;;;;;-3.13;79.31;99309.56;5213456;22;20207;-79
2024/01/12 03:18:43;;;;;;;38.65;20.90;;;;;;;-3.10;79.48;99312.13;5187356;22;20248;-79
2024/01/12 03:20:46;;;;;;;36.72;21.00;;;;;;;-3.12;79.24;99299.38;5213392;22;20187;-79
2024/01/12 03:22:49;;;;;;;41.38;22.50;;;;;;;-3.12;79.27;99307.00;5213054;22;20182;-80
2024/01/12 03:24:52;;;;;;;38.53;21.50;;;;;;;-3.15;80.05;99309.56;5212438;22;20651;-80
2024/01/12 03:26:57;;;;;;;38.97;20.65;;;;;;;-3.16;79.87;99310.41;5240591;22;20203;-79
2024/01/12 03:29:01;;;;;;;44.90;22.13;;;;;;;-3.12;79.95;99309.56;5186814;22;20175;-79
2024/01/12 03:31:06;;;;;;;40.28;20.25;;;;;;;-3.13;80.20;99312.97;5212184;22;20537;-80
2024/01/12 03:33:09;;;;;;;35.15;20.55;;;;;;;-3.14;80.30;99329.13;5185292;22;20268;-81
2024/01/12 03:35:13;;;;;;;36.40;20.48;;;;;;;-3.11;80.61;99331.69;5212796;22;20219;-79
2024/01/12 03:37:16;;;;;;;41.95;22.10;;;;;;;-3.12;80.87;99329.97;5212048;22;20223;-79
2024/01/12 03:39:19;;;;;;;37.97;20.60;;;;;;;-3.12;80.40;99327.41;5212144;22;20206;-79
2024/01/12 03:41:25;;;;;;;38.70;19.73;;;;;;;-3.10;80.82;99333.38;5237954;22;20197;-80
2024/01/12 03:43:29;;;;;;;34.97;20.35;;;;;;;-3.10;81.21;99333.38;5240986;22;20168;-79
2024/01/12 03:45:33;;;;;;;35.83;20.95;;;;;;;-3.07;80.87;99333.38;5210991;22;20171;-80
2024/01/12 03:47:36;;;;;;;32.15;18.35;;;;;;;-3.07;80.32;99323.19;5214289;22;20180;-80
2024/01/12 03:49:39;;;;;;;40.80;21.10;;;;;;;-3.11;79.68;99321.47;5214848;22;20175;-79
2024/01/12 03:51:43;;;;;;;39.60;19.67;;;;;;;-3.11;79.66;99313.84;5241601;22;20202;-79
2024/01/12 03:53:46;;;;;;;37.85;20.42;;;;;;;-3.15;79.78;99322.28;5241581;22;20176;-80
2024/01/12 03:55:50;;;;;;;34.63;18.90;;;;;;;-3.22;80.32;99323.13;5213111;22;20192;-79
2024/01/12 03:57:54;;;;;;;39.25;19.95;;;;;;;-3.20;80.17;99329.09;5189256;22;20230;-80
2024/01/12 03:59:59;;;;;;;36.03;19.00;;;;;;;-3.22;79.59;99315.50;5189306;22;20204;-79
2024/01/12 04:02:03;;;;;;;39.28;20.95;;;;;;;-3.27;79.62;99324.78;5213472;22;20560;-83
2024/01/12 04:04:06;;;;;;;39.15;19.75;;;;;;;-3.30;79.66;99316.28;5214856;22;20184;-82
2024/01/12 04:06:09;;;;;;;37.65;19.98;;;;;;;-3.29;79.90;99317.13;5241735;22;20168;-83
2024/01/12 04:08:13;;;;;;;33.45;19.25;;;;;;;-3.31;79.73;99316.28;5189014;22;20169;-82
2024/01/12 04:10:15;;;;;;;34.67;18.25;;;;;;;-3.30;79.32;99312.88;5241329;22;20690;-83
2024/01/12 04:12:18;;;;;;;34.60;18.88;;;;;;;-3.35;79.34;99319.63;5240272;22;20627;-83
2024/01/12 04:14:20;;;;;;;37.75;22.27;;;;;;;-3.35;78.87;99310.31;5213457;22;20707;-83
2024/01/12 04:16:25;;;;;;;33.03;20.13;;;;;;;-3.41;79.14;99320.47;5240876;22;20206;-83
2024/01/12 04:18:29;;;;;;;34.40;20.92;;;;;;;-3.41;79.18;99322.16;5241834;22;20575;-83
2024/01/12 04:20:32;;;;;;;35.58;19.80;;;;;;;-3.44;79.65;99322.13;5239808;22;20595;-82
2024/01/12 04:22:34;;;;;;;37.65;20.55;;;;;;;-3.47;79.70;99325.53;5239444;22;20230;-82
2024/01/12 04:24:37;;;;;;;34.85;19.98;;;;;;;-3.47;79.44;99317.88;5211295;22;20202;-82
2024/01/12 04:26:40;;;;;;;36.53;19.00;;;;;;;-3.41;79.83;99324.69;5242111;22;20171;-82
2024/01/12 04:28:44;;;;;;;34.92;18.40;;;;;;;-3.37;79.66;99323.88;5242860;22;20776;-82
2024/01/12 04:30:47;;;;;;;33.75;18.70;;;;;;;-3.36;79.02;99323.91;5239677;22;20857;-83
2024/01/12 04:32:52;;;;;;;34.47;19.45;;;;;;;-3.32;79.96;99319.66;5213650;22;20183;-83
2024/01/12 04:34:55;;;;;;;33.65;18.35;;;;;;;-3.33;80.23;99328.16;5241415;22;20206;-82
2024/01/12 04:36:58;;;;;;;31.13;18.40;;;;;;;-3.38;79.55;99327.25;5215166;22;20168;-82
2024/01/12 04:39:00;;;;;;;37.72;17.83;;;;;;;-3.44;79.41;99328.09;5188493;22;20582;-82
2024/01/12 04:41:04;;;;;;;31.17;17.27;;;;;;;-3.49;79.56;99323.81;5188379;22;20183;-82
2024/01/12 04:43:07;;;;;;;35.95;18.70;;;;;;;-3.46;79.62;99316.19;5214213;22;20176;-83
2024/01/12 04:45:10;;;;;;;33.08;17.95;;;;;;;-3.43;79.88;99319.59;5187572;22;20173;-83
2024/01/12 04:47:13;;;;;;;31.67;17.48;;;;;;;-3.44;80.20;99314.50;5214660;22;20263;-82
2024/01/12 04:49:18;;;;;;;34.55;18.98;;;;;;;-3.39;80.66;99325.59;5241571;22;20201;-83
2024/01/12 04:51:21;;;;;;;31.90;18.83;;;;;;;-3.36;80.13;99328.16;5214045;22;20176;-83
2024/01/12 04:53:25;;;;;;;36.83;19.38;;;;;;;-3.39;79.93;99331.53;5214283;22;20176;-82
2024/01/12 04:55:28;;;;;;;35.30;18.80;;;;;;;-3.44;78.81;99332.31;5213428;22;20206;-83
2024/01/12 04:57:31;;;;;;;33.28;18.05;;;;;;;-3.49;79.26;99323.81;5213306;22;20176;-83
2024/01/12 04:59:34;;;;;;;41.38;20.17;;;;;;;-3.51;78.77;99330.59;5213467;22;20208;-82
2024/01/12 05:01:38;;;;;;;39.45;19.48;;;;;;;-3.54;78.87;99336.53;5212074;22;20481;-83
2024/01/12 05:03:41;;;;;;;34.75;18.65;;;;;;;-3.54;78.94;99341.63;5241001;22;20187;-82
2024/01/12 05:05:45;;;;;;;39.38;19.30;;;;;;;-3.57;79.03;99338.22;5214631;22;20636;-83
2024/01/12 05:07:49;;;;;;;32.58;18.55;;;;;;;-3.60;78.93;99343.28;5241514;22;20179;-82
2024/01/12 05:09:52;;;;;;;35.50;17.92;;;;;;;-3.59;78.87;99350.09;5241567;22;20203;-82
2024/01/12 05:11:55;;;;;;;38.13;18.90;;;;;;;-3.61;78.90;99350.09;5186755;22;20181;-82
2024/01/12 05:13:59;;;;;;;33.03;19.23;;;;;;;-3.59;79.40;99350.94;5211202;22;20222;-82
2024/01/12 05:16:02;;;;;;;31.92;18.33;;;;;;;-3.53;78.98;99342.50;5188013;22;20224;-82
2024/01/12 05:18:06;;;;;;;35.58;20.30;;;;;;;-3.56;79.13;99345.88;5188309;22;20173;-83
2024/01/12 05:20:12;;;;;;;41.67;22.52;;;;;;;-3.55;79.06;99341.59;5187727;22;20231;-83
2024/01/12 05:22:17;;;;;;;40.85;20.23;;;;;;;-3.58;78.25;99339.91;5212710;22;20195;-82
2024/01/12 05:24:19;;;;;;;36.10;21.77;;;;;;;-3.63;79.14;99343.25;5213044;22;20172;-82
2024/01/12 05:26:22;;;;;;;42.80;23.00;;;;;;;-3.63;79.25;99335.63;5213068;22;20171;-82
2024/01/12 05:28:25;;;;;;;37.45;18.98;;;;;;;-3.61;78.46;99344.13;5239861;22;20171;-82
2024/01/12 05:30:28;;;;;;;39.55;19.98;;;;;;;-3.65;78.72;99335.59;5240967;22;20459;-82
2024/01/12 05:32:34;;;;;;;43.08;20.80;;;;;;;-3.63;79.17;99333.06;5240558;22;20722;-83
2024/01/12 05:34:37;;;;;;;41.10;20.92;;;;;;;-3.65;79.47;99344.97;5239896;22;20183;-82
2024/01/12 05:36:41;;;;;;;36.53;20.98;;;;;;;-3.64;79.41;99344.09;5214087;22;20282;-82
2024/01/12 05:38:44;;;;;;;37.28;20.88;;;;;;;-3.66;79.42;99348.34;5188029;22;20263;-82
2024/01/12 05:40:47;;;;;;;32.60;18.92;;;;;;;-3.66;79.44;99358.53;5238866;22;20183;-82
2024/01/12 05:42:50;;;;;;;38.53;20.52;;;;;;;-3.64;79.55;99356.84;5240475;22;20164;-82
2024/01/12 05:44:53;;;;;;;38.17;19.95;;;;;;;-3.63;79.99;99349.19;5187779;22;20183;-82
2024/01/12 05:46:55;;;;;;;39.10;21.38;;;;;;;-3.65;79.21;99350.06;5241527;22;20178;-83
2024/01/12 05:49:00;;;;;;;42.45;21.48;;;;;;;-3.63;79.27;99343.25;5240247;22;20167;-82
2024/01/12 05:51:04;;;;;;;40.97;20.55;;;;;;;-3.61;79.24;99346.66;5239761;22;20246;-83
2024/01/12 05:53:07;;;;;;;40.75;22.58;;;;;;;-3.64;79.41;99341.53;5240430;22;20218;-83
2024/01/12 05:55:12;;;;;;;41.08;22.20;;;;;;;-3.61;79.36;99341.56;5213049;22;20176;-83
2024/01/12 05:57:15;;;;;;;40.03;21.70;;;;;;;-3.59;79.63;99347.53;5213075;22;20203;-82
2024/01/12 05:59:18;;;;;;;45.15;22.67;;;;;;;-3.54;79.58;99348.41;5239095;22;20218;-82
2024/01/12 06:01:21;;;;;;;38.25;20.65;;;;;;;-3.62;79.90;99345.81;5211486;22;20176;-82
2024/01/12 06:03:27;;;;;;;37.15;19.98;;;;;;;-3.65;79.60;99352.59;5212944;22;20187;-82
2024/01/12 06:05:31;;;;;;;44.05;21.40;;;;;;;-3.67;78.88;99347.50;5212431;22;20256;-83
2024/01/12 06:07:34;;;;;;;46.95;23.58;;;;;;;-3.61;79.05;99356.84;5213725;22;20183;-83
2024/01/12 06:09:38;;;;;;;48.50;22.92;;;;;;;-3.65;78.89;99358.53;5212929;22;20930;-82
2024/01/12 06:11:43;;;;;;;42.40;23.27;;;;;;;-3.66;78.67;99341.53;5213210;22;20168;-84
2024/01/12 06:13:47;;;;;;;37.28;21.48;;;;;;;-3.74;78.13;99344.88;5212801;22;20561;-83
2024/01/12 06:15:50;;;;;;;38.85;21.23;;;;;;;-3.87;77.72;99337.97;5213310;22;20781;-82
2024/01/12 06:17:57;;;;;;;43.42;22.10;;;;;;;-3.92;78.08;99332.00;5188627;22;20754;-82
2024/01/12 06:20:00;;;;;;;37.45;19.63;;;;;;;-3.91;78.11;99333.72;5213158;22;20176;-82
2024/01/12 06:22:04;;;;;;;42.30;21.65;;;;;;;-3.92;78.77;99334.56;5212972;22;20191;-80
2024/01/12 06:24:08;;;;;;;34.25;20.20;;;;;;;-3.91;78.84;99326.09;5240335;22;20552;-79
2024/01/12 06:26:11;;;;;;;45.65;23.27;;;;;;;-3.87;79.07;99332.91;5187744;22;20197;-79
2024/01/12 06:28:16;;;;;;;34.60;19.35;;;;;;;-3.88;78.46;99336.25;5240903;22;20630;-80
2024/01/12 06:30:21;;;;;;;42.72;21.20;;;;;;;-3.91;78.43;99330.31;5212698;22;20219;-79
2024/01/12 06:32:25;;;;;;;38.72;21.23;;;;;;;-3.86;78.91;99328.63;5212643;22;20175;-79
2024/01/12 06:34:28;;;;;;;41.10;22.13;;;;;;;-3.87;78.96;99335.44;5240821;22;20229;-80
2024/01/12 06:36:31;;;;;;;45.70;21.85;;;;;;;-3.86;79.28;99336.28;5213221;22;20196;-79
2024/01/12 06:38:34;;;;;;;48.28;22.98;;;;;;;-3.85;78.89;99340.53;5213208;22;20229;-80
2024/01/12 06:40:38;;;;;;;39.08;20.95;;;;;;;-3.85;78.66;99341.38;5241094;22;20167;-78
2024/01/12 06:42:41;;;;;;;38.40;21.13;;;;;;;-3.85;78.82;99332.91;5186780;22;20177;-79
2024/01/12 06:44:46;;;;;;;44.53;20.90;;;;;;;-3.87;79.07;99334.59;5210541;22;20264;-80
2024/01/12 06:46:49;;;;;;;41.25;20.70;;;;;;;-3.91;79.48;99328.63;5187941;22;20207;-79
2024/01/12 06:48:51;;;;;;;40.08;21.02;;;;;;;-3.91;79.47;99338.81;5212664;22;20600;-79
2024/01/12 06:50:54;;;;;;;38.95;21.02;;;;;;;-3.85;79.08;99340.53;5212561;22;20180;-80
2024/01/12 06:53:00;;;;;;;43.70;21.63;;;;;;;-3.90;78.48;99343.06;5212884;22;20532;-79
2024/01/12 06:55:05;;;;;;;39.72;20.77;;;;;;;-3.96;77.74;99348.09;5212937;22;20171;-80
2024/01/12 06:57:09;;;;;;;40.92;21.17;;;;;;;-4.00;77.51;99341.28;5188116;22;20223;-79
2024/01/12 06:59:13;;;;;;;41.22;21.38;;;;;;;-4.02;76.72;99342.94;5188606;22;20707;-79
2024/01/12 07:01:20;;;;;;;109.95;42.78;;;;;;;-4.08;77.65;99348.00;5187427;22;20177;-80
2024/01/12 07:03:24;;;;;;;46.08;21.30;;;;;;;-4.09;77.50;99345.44;5214392;22;20233;-79
2024/01/12 07:05:27;;;;;;;39.17;21.60;;;;;;;-4.11;77.29;99337.78;5214222;22;20172;-79
2024/01/12 07:07:30;;;;;;;40.75;20.23;;;;;;;-4.12;77.29;99335.22;5241279;22;20176;-79
2024/01/12 07:09:33;;;;;;;41.50;22.48;;;;;;;-4.14;77.52;99332.66;5213068;22;20202;-80
2024/01/12 07:11:40;;;;;;;44.42;22.00;;;;;;;-4.14;78.17;99336.91;5211942;22;20644;-80
2024/01/12 07:13:44;;;;;;;46.15;22.83;;;;;;;-4.13;78.59;99334.38;5213166;22;20168;-80
2024/01/12 07:15:47;;;;;;;41.90;22.65;;;;;;;-4.07;78.39;99339.53;5240599;22;20500;-80
2024/01/12 07:17:52;;;;;;;50.72;24.02;;;;;;;-4.04;78.85;99343.81;5188010;22;20203;-80
2024/01/12 07:19:55;;;;;;;47.00;23.83;;;;;;;-3.97;78.94;99354.06;5213140;22;20648;-80
2024/01/12 07:21:58;;;;;;;48.83;24.20;;;;;;;-3.96;79.20;99363.38;5238685;22;20669;-78
2024/01/12 07:24:01;;;;;;;46.38;23.45;;;;;;;-4.00;78.89;99361.66;5240094;22;20548;-80
2024/01/12 07:26:06;;;;;;;44.08;22.60;;;;;;;-4.04;78.04;99359.91;5237849;22;20178;-80
2024/01/12 07:28:10;;;;;;;42.90;21.98;;;;;;;-4.07;78.25;99357.34;5238371;22;20189;-80
2024/01/12 07:30:14;;;;;;;45.45;21.77;;;;;;;-4.00;78.71;99365.88;5186478;22;20261;-78
2024/01/12 07:32:19;;;;;;;39.25;21.10;;;;;;;-3.97;78.42;99366.78;5211958;22;20230;-78
2024/01/12 07:34:24;;;;;;;38.92;21.33;;;;;;;-3.95;78.78;99375.28;5211074;22;20175;-81
2024/01/12 07:36:29;;;;;;;45.95;23.50;;;;;;;-3.97;79.37;99364.25;5239584;22;20171;-82
2024/01/12 07:38:32;;;;;;;47.08;22.38;;;;;;;-3.94;79.67;99369.34;5239592;22;20199;-81
2024/01/12 07:40:36;;;;;;;42.75;22.45;;;;;;;-3.88;79.78;99376.16;5239938;22;20493;-83
2024/01/12 07:42:40;;;;;;;44.40;23.23;;;;;;;-3.81;80.18;99383.03;5209957;22;20636;-82
2024/01/12 07:44:43;;;;;;;46.55;23.83;;;;;;;-3.76;79.98;99382.22;5210593;22;20180;-81
2024/01/12 07:46:47;;;;;;;50.63;24.85;;;;;;;-3.73;80.00;99385.66;5187853;22;20595;-80
2024/01/12 07:48:51;;;;;;;61.60;29.42;;;;;;;-3.63;79.72;99389.13;5211756;22;20200;-80
2024/01/12 07:50:56;;;;;;;73.55;34.10;;;;;;;-3.58;79.59;99398.53;5211188;22;20210;-81
2024/01/12 07:52:59;;;;;;;85.25;37.92;;;;;;;-3.48;79.55;99407.06;5238600;22;20179;-81
2024/01/12 07:55:03;;;;;;;80.95;39.42;;;;;;;-3.40;79.31;99402.88;5210722;22;20531;-80
2024/01/12 07:57:06;;;;;;;62.50;31.15;;;;;;;-3.28;79.18;99403.81;5240520;22;20250;-81
2024/01/12 07:59:10;;;;;;;51.70;23.23;;;;;;;-3.25;78.06;99401.28;5212401;22;20176;-82
2024/01/12 08:01:13;;;;;;;34.70;20.73;;;;;;;-3.17;77.44;99405.59;5237668;22;20267;-82
2024/01/12 08:03:16;;;;;;;44.38;22.90;;;;;;;-3.13;77.43;99409.00;5239782;22;20818;-81
2024/01/12 08:05:20;;;;;;;40.05;22.23;;;;;;;-3.05;78.26;99405.66;5213242;22;20263;-83
2024/01/12 08:07:24;;;;;;;42.33;21.83;;;;;;;-2.91;78.40;99411.69;5213400;22;20238;-80
2024/01/12 08:09:27;;;;;;;46.97;23.10;;;;;;;-2.78;78.38;99423.66;5212754;22;20226;-83
2024/01/12 08:11:31;;;;;;;50.42;24.73;;;;;;;-2.70;78.71;99422.00;5212514;22;20172;-82
2024/01/12 08:13:43;;;;;;;46.83;23.13;;;;;;;-2.59;78.26;99425.44;5212105;22;20179;-82
2024/01/12 08:15:45;;;;;;;46.00;21.92;;;;;;;-2.50;77.86;99428.03;5237598;22;20179;-81
2024/01/12 08:17:48;;;;;;;44.78;23.83;;;;;;;-2.45;77.83;99439.09;5239270;22;20231;-82
2024/01/12 08:19:51;;;;;;;44.08;25.50;;;;;;;-2.33;77.88;99434.88;5212399;22;20218;-81
2024/01/12 08:21:54;;;;;;;42.25;23.42;;;;;;;-2.25;77.66;99435.78;5238438;22;20199;-82
2024/01/12 08:23:59;;;;;;;47.20;24.13;;;;;;;-2.20;78.01;99434.09;5238920;22;20179;-82
2024/01/12 08:26:02;;;;;;;42.15;23.02;;;;;;;-2.08;78.16;99441.78;5239996;22;20476;-82
2024/01/12 08:28:06;;;;;;;51.55;27.20;;;;;;;-1.97;77.99;99446.09;5213824;22;20191;-80
2024/01/12 08:30:09;;;;;;;46.42;25.38;;;;;;;-1.88;77.75;99446.06;5212841;22;20255;-81
2024/01/12 08:32:14;;;;;;;43.92;25.60;;;;;;;-1.81;77.42;99447.81;5238782;22;20176;-83
2024/01/12 08:34:16;;;;;;;45.25;23.58;;;;;;;-1.72;77.48;99458.03;5189284;22;20192;-82
2024/01/12 08:36:19;;;;;;;46.70;24.17;;;;;;;-1.62;77.97;99454.66;5214694;22;20180;-81
2024/01/12 08:38:22;;;;;;;48.03;26.00;;;;;;;-1.54;77.40;99458.06;5240596;22;20508;-82
2024/01/12 08:40:28;;;;;;;45.63;22.75;;;;;;;-1.50;77.58;99462.31;5214089;22;20213;-81
2024/01/12 08:42:30;;;;;;;47.50;23.90;;;;;;;-1.41;77.53;99458.09;5239874;22;20653;-82
2024/01/12 08:44:33;;;;;;;45.75;24.83;;;;;;;-1.35;77.33;99464.03;5240367;22;20248;-82
2024/01/12 08:46:36;;;;;;;45.20;23.70;;;;;;;-1.29;77.74;99469.16;5241379;22;20225;-82
2024/01/12 08:48:41;;;;;;;39.80;23.05;;;;;;;-1.23;78.05;99466.59;5240927;22;20176;-81
2024/01/12 08:50:44;;;;;;;45.85;25.23;;;;;;;-1.12;77.71;99471.72;5242150;22;20266;-82
2024/01/12 08:52:48;;;;;;;43.92;25.08;;;;;;;-1.00;78.16;99469.97;5213768;22;20237;-81
2024/01/12 08:54:51;;;;;;;39.70;23.85;;;;;;;-1.01;78.36;99465.72;5188363;22;20177;-81
2024/01/12 08:56:55;;;;;;;46.97;23.48;;;;;;;-1.05;78.46;99458.91;5241334;22;20611;-81
2024/01/12 08:58:57;;;;;;;40.50;22.67;;;;;;;-1.11;78.46;99464.03;5215090;22;20224;-82
2024/01/12 09:01:00;;;;;;;48.92;21.33;;;;;;;-1.20;78.68;99461.47;5239593;22;20178;-82
2024/01/12 09:03:05;;;;;;;44.70;23.67;;;;;;;-1.23;78.83;99465.75;5242810;22;20251;-82
2024/01/12 09:05:10;;;;;;;41.42;22.48;;;;;;;-1.33;79.18;99461.47;5242266;22;20160;-82
2024/01/12 09:07:14;;;;;;;43.17;22.42;;;;;;;-1.33;79.60;99467.44;5213554;22;20267;-81
2024/01/12 09:09:18;;;;;;;42.70;23.48;;;;;;;-1.26;80.32;99470.88;5188865;22;20173;-82
2024/01/12 09:11:21;;;;;;;44.67;24.77;;;;;;;-1.29;80.10;99463.19;5209104;22;20210;-81
2024/01/12 09:13:25;;;;;;;47.10;23.83;;;;;;;-1.23;80.11;99470.88;5239149;22;20178;-82
2024/01/12 09:15:29;;;;;;;48.95;23.20;;;;;;;-1.23;79.68;99474.28;5240116;22;20172;-81
2024/01/12 09:17:33;;;;;;;43.50;23.77;;;;;;;-1.17;80.02;99469.16;5242015;22;20171;-81
2024/01/12 09:19:36;;;;;;;47.22;24.80;;;;;;;-1.13;80.20;99477.66;5214196;22;20238;-81
2024/01/12 09:21:44;;;;;;;44.85;24.85;;;;;;;-1.23;80.25;99476.81;5239192;22;20237;-83
2024/01/12 09:23:47;;;;;;;42.03;23.63;;;;;;;-1.32;80.18;99484.50;5189142;22;20176;-84
2024/01/12 09:25:52;;;;;;;45.60;23.33;;;;;;;-1.35;80.18;99475.97;5212700;22;20640;-83
2024/01/12 09:28:00;;;;;;;46.08;24.95;;;;;;;-1.30;80.49;99482.78;5240336;22;20241;-83